createdAt,value
2022-08-22T00:02:09.007Z,99926.02
2022-08-22T00:02:44.479Z,99815.54
2022-08-22T00:02:57.280Z,99809.20
2022-08-22T00:03:10.105Z,99834.50
2022-08-22T00:04:49.319Z,99923.44
2022-08-22T00:07:31.174Z,99914.70
2022-08-22T00:10:10.604Z,99906.31
2022-08-22T00:12:53.695Z,99902.63
2022-08-22T00:15:43.405Z,99902.89
2022-08-22T00:18:21.679Z,99910.85
2022-08-22T00:21:01.550Z,99905.75
2022-08-22T00:23:40.490Z,99906.14
2022-08-22T00:26:27.398Z,99896.45
2022-08-22T00:29:06.100Z,99885.48
2022-08-22T00:31:41.764Z,99884.81
2022-08-22T00:34:18.454Z,99878.52
2022-08-22T00:36:56.131Z,99882.00
2022-08-22T00:39:35.382Z,99883.63
2022-08-22T00:42:38.292Z,99888.55
2022-08-22T00:45:41.035Z,99883.63
2022-08-22T00:48:43.720Z,99887.31
2022-08-22T00:51:36.467Z,99883.33
2022-08-22T00:54:19.732Z,99891.80
2022-08-22T00:57:08.801Z,99895.05
2022-08-22T01:00:13.272Z,99892.86
2022-08-22T01:03:12.608Z,99898.48
2022-08-22T01:06:08.249Z,99897.58
2022-08-22T01:08:58.205Z,99901.08
2022-08-22T01:11:50.774Z,99902.37
2022-08-22T01:14:39.227Z,99901.71
2022-08-22T01:17:39.248Z,99903.75
2022-08-22T01:20:46.506Z,99907.69
2022-08-22T01:23:58.715Z,99906.98
2022-08-22T01:27:27.950Z,99908.45
2022-08-22T01:30:19.616Z,99911.76
2022-08-22T01:33:37.310Z,99909.00
2022-08-22T01:36:39.741Z,99907.68
2022-08-22T01:39:52.763Z,99906.58
2022-08-22T01:42:43.282Z,99905.38
2022-08-22T01:45:44.563Z,99903.96
2022-08-22T01:48:21.602Z,99907.02
2022-08-22T01:50:59.491Z,99900.14
2022-08-22T01:53:44.308Z,99890.88
2022-08-22T01:56:21.436Z,99888.52
2022-08-22T01:59:02.241Z,99884.98
2022-08-22T02:01:47.897Z,99885.93
2022-08-22T02:04:30.048Z,99894.64
2022-08-22T02:07:09.246Z,99895.92
2022-08-22T02:09:49.839Z,99897.45
2022-08-22T02:12:33.893Z,99895.83
2022-08-22T02:15:18.949Z,99892.72
2022-08-22T02:18:05.752Z,99893.34
2022-08-22T02:20:43.349Z,99887.72
2022-08-22T02:23:25.813Z,99883.27
2022-08-22T02:26:09.684Z,99881.05
2022-08-22T02:28:57.018Z,99879.77
2022-08-22T02:31:44.029Z,99876.45
2022-08-22T02:34:29.847Z,99880.36
2022-08-22T02:37:15.195Z,99878.24
2022-08-22T02:39:54.949Z,99882.17
2022-08-22T02:42:35.184Z,99879.94
2022-08-22T02:45:22.655Z,99881.19
2022-08-22T02:48:02.152Z,99886.81
2022-08-22T02:50:44.255Z,99886.17
2022-08-22T02:53:23.291Z,99887.18
2022-08-22T02:56:01.607Z,99883.25
2022-08-22T02:58:44.184Z,99883.80
2022-08-22T03:01:34.632Z,99885.66
2022-08-22T03:04:28.201Z,99886.09
2022-08-22T03:07:16.071Z,99883.84
2022-08-22T03:09:52.872Z,99883.55
2022-08-22T03:12:32.351Z,99875.02
2022-08-22T03:15:14.225Z,99870.02
2022-08-22T03:17:59.783Z,99868.14
2022-08-22T03:20:51.735Z,99868.00
2022-08-22T03:23:32.384Z,99868.42
2022-08-22T03:26:16.228Z,99867.04
2022-08-22T03:28:59.819Z,99865.48
2022-08-22T03:31:34.168Z,99865.61
2022-08-22T03:34:25.240Z,99874.10
2022-08-22T03:37:07.911Z,99871.45
2022-08-22T03:39:54.454Z,99870.71
2022-08-22T03:42:56.290Z,99876.60
2022-08-22T03:45:49.768Z,99872.91
2022-08-22T03:48:39.574Z,99872.55
2022-08-22T03:51:49.284Z,99873.14
2022-08-22T03:55:06.420Z,99873.02
2022-08-22T03:57:54.684Z,99873.00
2022-08-22T04:00:56.062Z,99881.58
2022-08-22T04:04:00.534Z,99880.99
2022-08-22T04:07:05.908Z,99885.73
2022-08-22T04:10:16.100Z,99879.40
2022-08-22T04:13:11.368Z,99883.55
2022-08-22T04:15:59.891Z,99891.52
2022-08-22T04:19:15.404Z,99895.68
2022-08-22T04:22:21.924Z,99893.89
2022-08-22T04:25:03.687Z,99901.80
2022-08-22T04:27:49.871Z,99911.59
2022-08-22T04:30:31.510Z,99912.94
2022-08-22T04:33:09.332Z,99920.42
2022-08-22T04:35:46.512Z,99925.25
2022-08-22T04:38:25.345Z,99927.64
2022-08-22T04:41:04.717Z,99929.28
2022-08-22T04:43:42.556Z,99925.86
2022-08-22T04:46:21.296Z,99927.90
2022-08-22T04:48:59.099Z,99928.00
2022-08-22T04:51:36.691Z,99929.24
2022-08-22T04:54:27.360Z,99931.05
2022-08-22T04:57:15.822Z,99934.65
2022-08-22T04:59:48.752Z,99933.26
2022-08-22T05:02:28.897Z,99944.19
2022-08-22T05:05:05.054Z,99946.39
2022-08-22T05:07:51.288Z,99948.19
2022-08-22T05:10:27.163Z,99947.98
2022-08-22T05:13:04.574Z,99949.65
2022-08-22T05:15:40.437Z,99953.92
2022-08-22T05:18:20.460Z,99957.77
2022-08-22T05:20:56.151Z,99959.02
2022-08-22T05:23:31.143Z,99961.30
2022-08-22T05:26:07.158Z,99961.21
2022-08-22T05:28:44.901Z,99962.38
2022-08-22T05:31:23.184Z,99966.79
2022-08-22T05:34:01.116Z,99972.48
2022-08-22T05:36:38.025Z,99976.46
2022-08-22T05:39:13.345Z,99978.06
2022-08-22T05:41:44.853Z,99983.57
2022-08-22T05:44:24.738Z,99988.22
2022-08-22T05:47:02.549Z,99990.16
2022-08-22T05:49:41.796Z,99991.80
2022-08-22T05:52:28.995Z,99996.54
2022-08-22T05:55:09.308Z,99997.25
2022-08-22T05:57:45.617Z,99998.14
2022-08-22T06:00:22.355Z,99996.36
2022-08-22T06:03:05.923Z,99991.05
2022-08-22T06:05:45.007Z,99999.27
2022-08-22T06:08:25.926Z,99999.75
2022-08-22T06:11:04.473Z,100001.55
2022-08-22T06:13:41.338Z,100002.45
2022-08-22T06:16:20.609Z,100005.02
2022-08-22T06:18:54.495Z,100009.52
2022-08-22T06:21:38.618Z,100012.41
2022-08-22T06:24:21.372Z,100011.90
2022-08-22T06:26:58.222Z,100012.58
2022-08-22T06:29:36.623Z,100020.91
2022-08-22T06:32:16.895Z,100021.90
2022-08-22T06:35:15.009Z,100026.34
2022-08-22T06:37:50.103Z,100028.39
2022-08-22T06:40:23.439Z,100023.35
2022-08-22T06:42:57.297Z,100028.66
2022-08-22T06:45:33.331Z,100027.98
2022-08-22T06:48:17.978Z,100031.98
2022-08-22T06:50:58.641Z,100033.14
2022-08-22T06:53:37.362Z,100036.45
2022-08-22T06:56:20.687Z,100036.05
2022-08-22T06:58:57.606Z,100037.84
2022-08-22T07:01:35.427Z,100038.48
2022-08-22T07:04:10.625Z,100041.58
2022-08-22T07:06:43.363Z,100041.88
2022-08-22T07:09:24.780Z,100037.92
2022-08-22T07:11:59.041Z,100041.16
2022-08-22T07:14:40.630Z,100040.00
2022-08-22T07:17:19.583Z,100041.76
2022-08-22T07:20:00.013Z,100046.25
2022-08-22T07:22:35.016Z,100048.52
2022-08-22T07:25:12.304Z,100051.46
2022-08-22T07:28:04.860Z,100051.97
2022-08-22T07:30:51.250Z,100053.49
2022-08-22T07:33:39.266Z,100053.51
2022-08-22T07:36:32.089Z,100059.48
2022-08-22T07:39:27.112Z,100059.17
2022-08-22T07:42:08.313Z,100060.04
2022-08-22T07:44:55.406Z,100061.40
2022-08-22T07:47:38.659Z,100057.83
2022-08-22T07:50:19.438Z,100058.75
2022-08-22T07:52:54.029Z,100059.64
2022-08-22T07:55:28.734Z,100057.04
2022-08-22T07:58:05.106Z,100050.01
2022-08-22T08:00:42.927Z,100050.40
2022-08-22T08:03:16.228Z,100047.33
2022-08-22T08:05:48.545Z,100041.99
2022-08-22T08:08:25.903Z,100039.30
2022-08-22T08:11:00.967Z,100034.61
2022-08-22T08:13:38.352Z,100027.06
2022-08-22T08:16:18.027Z,100030.29
2022-08-22T08:18:52.524Z,100024.64
2022-08-22T08:21:35.060Z,100022.66
2022-08-22T08:24:13.714Z,100020.48
2022-08-22T08:27:06.070Z,100022.42
2022-08-22T08:29:39.103Z,100016.81
2022-08-22T08:32:14.538Z,100019.17
2022-08-22T08:34:47.345Z,100028.09
2022-08-22T08:37:28.105Z,100028.41
2022-08-22T08:40:05.233Z,100032.84
2022-08-22T08:43:26.108Z,100028.80
2022-08-22T08:46:28.367Z,100037.08
2022-08-22T08:49:21.075Z,100039.48
2022-08-22T08:52:10.873Z,100036.30
2022-08-22T08:55:00.785Z,100037.73
2022-08-22T08:57:49.568Z,100041.95
2022-08-22T09:00:33.186Z,100037.48
2022-08-22T09:03:11.979Z,100032.29
2022-08-22T09:06:02.533Z,100029.20
2022-08-22T09:08:55.668Z,100032.42
2022-08-22T09:12:03.332Z,100036.09
2022-08-22T09:15:14.281Z,100037.07
2022-08-22T09:18:12.016Z,100037.85
2022-08-22T09:21:04.185Z,100037.02
2022-08-22T09:24:12.553Z,100035.08
2022-08-22T09:26:57.222Z,100030.86
2022-08-22T09:29:54.962Z,100028.05
2022-08-22T09:32:44.199Z,100030.30
2022-08-22T09:35:27.036Z,100025.85
2022-08-22T09:38:26.640Z,100024.59
2022-08-22T09:41:11.319Z,100022.43
2022-08-22T09:43:49.446Z,100015.92
2022-08-22T09:46:31.422Z,100011.80
2022-08-22T09:49:14.550Z,100015.80
2022-08-22T09:52:14.284Z,100013.89
2022-08-22T09:54:51.469Z,100015.20
2022-08-22T09:57:33.403Z,100018.35
2022-08-22T10:00:22.319Z,100013.75
2022-08-22T10:03:04.276Z,100011.05
2022-08-22T10:05:44.216Z,100007.33
2022-08-22T10:08:31.666Z,100014.30
2022-08-22T10:11:21.186Z,100010.23
2022-08-22T10:14:02.479Z,100013.45
2022-08-22T10:16:54.897Z,100015.60
2022-08-22T10:19:33.877Z,100012.99
2022-08-22T10:22:29.860Z,100011.61
2022-08-22T10:25:21.147Z,100000.83
2022-08-22T10:28:05.863Z,100003.52
2022-08-22T10:30:54.918Z,100006.72
2022-08-22T10:33:34.494Z,100003.00
2022-08-22T10:36:12.022Z,99997.83
2022-08-22T10:38:48.824Z,99996.83
2022-08-22T10:41:33.988Z,100000.36
2022-08-22T10:44:14.225Z,99997.23
2022-08-22T10:46:54.396Z,99993.88
2022-08-22T10:49:33.793Z,99990.58
2022-08-22T10:52:15.483Z,99984.40
2022-08-22T10:54:52.917Z,99984.27
2022-08-22T10:57:38.981Z,99980.48
2022-08-22T11:00:22.611Z,99979.32
2022-08-22T11:03:02.613Z,99975.51
2022-08-22T11:05:41.304Z,99973.58
2022-08-22T11:08:46.124Z,99968.53
2022-08-22T11:11:37.046Z,99971.32
2022-08-22T11:14:36.231Z,99961.84
2022-08-22T11:17:31.171Z,99960.98
2022-08-22T11:20:19.896Z,99963.67
2022-08-22T11:23:13.400Z,99952.77
2022-08-22T11:25:58.485Z,99951.11
2022-08-22T11:28:56.544Z,99947.23
2022-08-22T11:31:47.350Z,99942.75
2022-08-22T11:34:42.635Z,99944.10
2022-08-22T11:37:42.443Z,99938.33
2022-08-22T11:40:26.126Z,99942.33
2022-08-22T11:43:18.304Z,99936.73
2022-08-22T11:45:53.661Z,99934.05
2022-08-22T11:48:33.192Z,99929.88
2022-08-22T11:51:15.721Z,99919.14
2022-08-22T11:53:53.387Z,99908.39
2022-08-22T11:56:32.507Z,99910.41
2022-08-22T11:59:19.350Z,99908.77
2022-08-22T12:02:01.395Z,99904.25
2022-08-22T12:04:42.656Z,99897.29
2022-08-22T12:07:20.236Z,99893.98
2022-08-22T12:09:58.234Z,99888.21
2022-08-22T12:12:51.275Z,99892.02
2022-08-22T12:15:28.658Z,99894.53
2022-08-22T12:18:32.096Z,99896.66
2022-08-22T12:21:30.121Z,99897.30
2022-08-22T12:24:26.384Z,99895.59
2022-08-22T12:27:32.307Z,99895.42
2022-08-22T12:30:14.938Z,99898.11
2022-08-22T12:33:17.313Z,99897.05
2022-08-22T12:36:06.392Z,99900.48
2022-08-22T12:39:01.295Z,99904.93
2022-08-22T12:42:01.548Z,99903.02
2022-08-22T12:44:44.864Z,99899.36
2022-08-22T12:47:32.283Z,99895.46
2022-08-22T12:50:28.906Z,99893.11
2022-08-22T12:53:26.967Z,99894.87
2022-08-22T12:56:14.076Z,99899.80
2022-08-22T12:59:05.385Z,99896.98
2022-08-22T13:01:43.517Z,99892.31
2022-08-22T13:04:29.674Z,99890.81
2022-08-22T13:07:11.457Z,99892.02
2022-08-22T13:09:52.311Z,99896.44
2022-08-22T13:12:32.376Z,99896.81
2022-08-22T13:15:25.588Z,99901.02
2022-08-22T13:18:18.873Z,99901.66
2022-08-22T13:20:55.234Z,99902.67
2022-08-22T13:23:34.293Z,99907.59
2022-08-22T13:26:32.974Z,99912.77
2022-08-22T13:29:25.737Z,99913.09
2022-08-22T13:32:02.427Z,99916.30
2022-08-22T13:34:44.695Z,99906.71
2022-08-22T13:37:24.748Z,99909.31
2022-08-22T13:40:03.309Z,99912.96
2022-08-22T13:42:47.880Z,99908.44
2022-08-22T13:45:26.298Z,99905.77
2022-08-22T13:48:03.802Z,99912.50
2022-08-22T13:50:53.408Z,99910.08
2022-08-22T13:53:35.694Z,99918.77
2022-08-22T13:56:15.449Z,99919.89
2022-08-22T13:58:52.762Z,99926.62
2022-08-22T14:01:46.861Z,99929.37
2022-08-22T14:04:32.292Z,99932.34
2022-08-22T14:07:31.723Z,99931.79
2022-08-22T14:10:15.086Z,99928.95
2022-08-22T14:13:09.052Z,99928.95
2022-08-22T14:15:45.411Z,99935.81
2022-08-22T14:18:36.092Z,99934.43
2022-08-22T14:21:40.920Z,99917.61
2022-08-22T14:24:27.282Z,99932.38
2022-08-22T14:27:05.309Z,99925.30
2022-08-22T14:29:44.745Z,99927.55
2022-08-22T14:32:45.211Z,99922.84
2022-08-22T14:35:34.974Z,99920.74
2022-08-22T14:38:27.450Z,99924.77
2022-08-22T14:41:06.847Z,99924.45
2022-08-22T14:43:54.648Z,99932.29
2022-08-22T14:46:36.689Z,99932.52
2022-08-22T14:49:47.933Z,99942.77
2022-08-22T14:52:34.335Z,99953.23
2022-08-22T14:55:22.911Z,99954.38
2022-08-22T14:58:00.072Z,99950.19
2022-08-22T15:00:47.842Z,99950.95
2022-08-22T15:03:32.321Z,99952.46
2022-08-22T15:06:07.630Z,99953.12
2022-08-22T15:08:49.299Z,99949.41
2022-08-22T15:11:27.827Z,99943.74
2022-08-22T15:14:08.072Z,99944.83
2022-08-22T15:16:47.824Z,99937.30
2022-08-22T15:19:35.494Z,99939.58
2022-08-22T15:22:18.048Z,99940.81
2022-08-22T15:25:08.548Z,99946.55
2022-08-22T15:27:50.110Z,99942.02
2022-08-22T15:30:36.762Z,99940.14
2022-08-22T15:33:15.692Z,99939.33
2022-08-22T15:35:49.101Z,99940.27
2022-08-22T15:38:31.062Z,99938.95
2022-08-22T15:41:31.428Z,99942.07
2022-08-22T15:44:17.191Z,99939.83
2022-08-22T15:47:24.353Z,99942.61
2022-08-22T15:50:02.518Z,99943.83
2022-08-22T15:53:13.717Z,99946.39
2022-08-22T15:56:24.978Z,99950.64
2022-08-22T15:59:24.887Z,99949.55
2022-08-22T16:02:04.763Z,99951.78
2022-08-22T16:04:43.609Z,99951.30
2022-08-22T16:07:40.125Z,99953.61
2022-08-22T16:10:31.737Z,99952.67
2022-08-22T16:13:34.221Z,99954.55
2022-08-22T16:16:08.982Z,99957.58
2022-08-22T16:19:20.488Z,99946.16
2022-08-22T16:22:18.279Z,99949.66
2022-08-22T16:25:10.730Z,99952.02
2022-08-22T16:27:58.808Z,99951.08
2022-08-22T16:30:39.695Z,99960.68
2022-08-22T16:33:18.464Z,99965.16
2022-08-22T16:36:37.150Z,99974.02
2022-08-22T16:39:32.840Z,99976.79
2022-08-22T16:42:26.079Z,99978.38
2022-08-22T16:45:16.150Z,99977.32
2022-08-22T16:47:56.799Z,99986.45
2022-08-22T16:50:41.104Z,99991.30
2022-08-22T16:53:59.687Z,99991.63
2022-08-22T16:56:38.388Z,99987.09
2022-08-22T16:59:38.557Z,99983.02
2022-08-22T17:02:33.242Z,99983.33
2022-08-22T17:05:29.420Z,99984.08
2022-08-22T17:08:24.627Z,99985.98
2022-08-22T17:11:06.146Z,99991.25
2022-08-22T17:13:57.923Z,99995.95
2022-08-22T17:16:53.769Z,99993.88
2022-08-22T17:19:46.747Z,99994.95
2022-08-22T17:22:29.591Z,99994.17
2022-08-22T17:25:18.848Z,99997.52
2022-08-22T17:28:03.136Z,99994.30
2022-08-22T17:30:42.762Z,99997.27
2022-08-22T17:33:27.937Z,100000.82
2022-08-22T17:36:26.994Z,100003.77
2022-08-22T17:39:13.084Z,100014.01
2022-08-22T17:41:50.839Z,100021.39
2022-08-22T17:44:33.373Z,100024.48
2022-08-22T17:47:15.112Z,100031.42
2022-08-22T17:49:58.176Z,100035.38
2022-08-22T17:52:36.436Z,100041.45
2022-08-22T17:55:17.347Z,100041.13
2022-08-22T17:57:54.943Z,100040.03
2022-08-22T18:00:31.404Z,100040.41
2022-08-22T18:03:09.377Z,100036.62
2022-08-22T18:05:55.322Z,100039.73
2022-08-22T18:08:38.083Z,100038.20
2022-08-22T18:11:17.507Z,100045.54
2022-08-22T18:13:57.235Z,100051.41
2022-08-22T18:16:33.911Z,100057.29
2022-08-22T18:19:13.966Z,100059.13
2022-08-22T18:21:54.334Z,100061.65
2022-08-22T18:24:35.207Z,100066.45
2022-08-22T18:27:10.674Z,100069.75
2022-08-22T18:30:08.621Z,100076.93
2022-08-22T18:32:49.044Z,100080.23
2022-08-22T18:35:26.454Z,100088.02
2022-08-22T18:38:19.730Z,100095.35
2022-08-22T18:40:58.499Z,100099.79
2022-08-22T18:43:39.603Z,100102.30
2022-08-22T18:46:34.116Z,100110.06
2022-08-22T18:49:34.650Z,100113.42
2022-08-22T18:52:34.336Z,100114.30
2022-08-22T18:55:44.423Z,100119.40
2022-08-22T18:58:42.640Z,100114.27
2022-08-22T19:01:46.297Z,100108.11
2022-08-22T19:04:47.158Z,100103.23
2022-08-22T19:07:42.546Z,100107.91
2022-08-22T19:10:43.415Z,100110.94
2022-08-22T19:13:32.986Z,100111.13
2022-08-22T19:16:31.568Z,100115.83
2022-08-22T19:19:07.146Z,100112.53
2022-08-22T19:22:20.850Z,100115.80
2022-08-22T19:25:18.162Z,100118.67
2022-08-22T19:28:26.846Z,100121.75
2022-08-22T19:31:23.393Z,100121.91
2022-08-22T19:34:29.369Z,100114.33
2022-08-22T19:37:32.720Z,100109.92
2022-08-22T19:40:10.217Z,100108.97
2022-08-22T19:42:49.908Z,100110.72
2022-08-22T19:45:29.107Z,100110.95
2022-08-22T19:48:14.193Z,100115.67
2022-08-22T19:50:47.089Z,100118.00
2022-08-22T19:53:43.144Z,100115.77
2022-08-22T19:56:35.742Z,100120.31
2022-08-22T19:59:24.271Z,100122.58
2022-08-22T20:02:03.412Z,100120.62
2022-08-22T20:05:07.867Z,100120.66
2022-08-22T20:07:57.416Z,100124.54
2022-08-22T20:10:39.825Z,100123.98
2022-08-22T20:13:22.239Z,100123.19
2022-08-22T20:16:22.417Z,100121.86
2022-08-22T20:19:17.553Z,100130.73
2022-08-22T20:22:02.651Z,100134.38
2022-08-22T20:24:40.419Z,100130.42
2022-08-22T20:27:20.371Z,100130.50
2022-08-22T20:30:03.103Z,100129.09
2022-08-22T20:32:40.671Z,100121.66
2022-08-22T20:35:18.806Z,100117.45
2022-08-22T20:38:06.713Z,100111.73
2022-08-22T20:41:00.749Z,100114.96
2022-08-22T20:43:38.408Z,100111.28
2022-08-22T20:46:24.599Z,100110.70
2022-08-22T20:48:58.555Z,100108.20
2022-08-22T20:51:33.433Z,100103.65
2022-08-22T20:54:19.734Z,100098.35
2022-08-22T20:56:55.928Z,100093.73
2022-08-22T20:59:36.015Z,100092.41
2022-08-22T21:02:19.419Z,100098.66
2022-08-22T21:05:03.727Z,100095.34
2022-08-22T21:07:38.979Z,100092.81
2022-08-22T21:10:37.269Z,100099.27
2022-08-22T21:13:12.555Z,100103.28
2022-08-22T21:15:47.507Z,100094.02
2022-08-22T21:18:30.005Z,100083.66
2022-08-22T21:21:17.718Z,100083.16
2022-08-22T21:23:52.515Z,100094.51
2022-08-22T21:26:28.258Z,100094.98
2022-08-22T21:29:04.827Z,100103.77
2022-08-22T21:31:43.231Z,100102.73
2022-08-22T21:34:20.919Z,100102.39
2022-08-22T21:36:54.740Z,100097.23
2022-08-22T21:39:30.736Z,100096.66
2022-08-22T21:42:17.831Z,100099.08
2022-08-22T21:44:58.920Z,100104.91
2022-08-22T21:47:35.195Z,100108.98
2022-08-22T21:50:29.084Z,100110.34
2022-08-22T21:53:09.148Z,100108.27
2022-08-22T21:55:47.201Z,100109.96
2022-08-22T21:58:35.861Z,100111.86
2022-08-22T22:01:30.432Z,100113.74
2022-08-22T22:04:03.605Z,100113.33
2022-08-22T22:06:35.800Z,100106.38
2022-08-22T22:09:11.929Z,100108.17
2022-08-22T22:11:47.248Z,100098.93
2022-08-22T22:14:19.693Z,100094.66
2022-08-22T22:16:51.880Z,100091.30
2022-08-22T22:19:24.000Z,100087.90
2022-08-22T22:21:58.024Z,100089.69
2022-08-22T22:24:30.183Z,100086.40
2022-08-22T22:27:04.704Z,100085.62
2022-08-22T22:29:37.388Z,100080.68
2022-08-22T22:32:10.528Z,100081.23
2022-08-22T22:34:42.744Z,100082.98
2022-08-22T22:37:15.863Z,100084.64
2022-08-22T22:39:48.174Z,100086.90
2022-08-22T22:42:20.492Z,100086.93
2022-08-22T22:44:52.696Z,100084.62
2022-08-22T22:47:28.900Z,100082.67
2022-08-22T22:50:01.156Z,100075.46
2022-08-22T22:52:33.311Z,100073.09
2022-08-22T22:55:12.428Z,100081.64
2022-08-22T22:57:58.575Z,100082.40
2022-08-22T23:00:34.500Z,100082.29
2022-08-22T23:03:08.108Z,100080.17
2022-08-22T23:05:40.313Z,100080.39
2022-08-22T23:08:12.491Z,100082.85
2022-08-22T23:10:44.710Z,100084.10
2022-08-22T23:13:17.176Z,100083.12
2022-08-22T23:15:49.316Z,100079.35
2022-08-22T23:18:21.455Z,100078.48
2022-08-22T23:21:13.243Z,100077.67
2022-08-22T23:23:46.878Z,100076.97
2022-08-22T23:26:19.620Z,100078.02
2022-08-22T23:28:51.831Z,100077.73
2022-08-22T23:31:31.672Z,100076.05
2022-08-22T23:34:08.031Z,100080.05
2022-08-22T23:36:41.954Z,100086.91
2022-08-22T23:39:16.058Z,100091.09
2022-08-22T23:41:49.352Z,100092.94
2022-08-22T23:44:24.904Z,100094.70
2022-08-22T23:46:57.483Z,100094.41
2022-08-22T23:49:30.367Z,100096.61
2022-08-22T23:52:02.921Z,100101.02
2022-08-22T23:54:35.517Z,100102.44
2022-08-22T23:57:12.038Z,100102.94
2022-08-22T23:59:48.000Z,100099.15
